Latest Weather Observations for Delta

IDN60801

Issued at 2:12 pm EDT Saturday 17 November 2018 (issued every 10 minutes, with the page automatically refreshed every 10 minutes)

About weather observations | Map of weather stations | Latest weather observations for NSW | Other Formats
Station Details ID: 048247 Name: DELTA AWS Lat: -30.10 Lon: 145.33 Height: 109.0 m
Data from the previous 72 hours. | See also: Recent months at Delta
Date/Time
EDT
Temp
°C
App
Temp
°C
Dew
Point
°C
Rel
Hum
%
Delta-T
°C
Wind Press
QNH
hPa
Press
MSL
hPa
Rain since
9am
mm
Dir  Spd
km/h
Gust
km/h
Spd
kts
Gust
kts
17/02:00pm 31.6 - -3.7 10 16.1 - - - - - - - 0.0
17/01:30pm 30.9 - -5.6 9 16.0 - - - - - - - 0.0
17/01:00pm 30.4 - -4.6 10 15.6 - - - - - - - 0.0
17/12:30pm 30.7 - -4.4 10 15.7 - - - - - - - 0.0
17/12:00pm 30.0 - -4.9 10 15.4 - - - - - - - 0.0
17/11:30am 29.1 - -5.6 10 15.0 - - - - - - - 0.0
17/11:00am 28.9 - -5.7 10 14.9 - - - - - - - 0.0
17/10:30am 28.0 - -4.0 12 14.1 - - - - - - - 0.0
17/10:00am 27.3 - -4.6 12 13.8 - - - - - - - 0.0
17/09:30am 26.1 - -3.5 14 12.9 - - - - - - - 0.0
17/09:00am 25.5 - -3.0 15 12.5 - - - - - - - 0.0
17/08:30am 23.7 - -3.6 16 11.7 - - - - - - - 0.0
17/08:00am 22.2 - -3.2 18 10.8 - - - - - - - 0.0
17/07:30am 21.4 - -3.9 18 10.5 - - - - - - - 0.0
17/07:00am 20.5 - -3.2 20 9.9 - - - - - - - 0.0
17/06:30am 19.5 - -3.4 21 9.5 - - - - - - - 0.0
17/06:00am 19.0 - -3.2 22 9.2 - - - - - - - 0.0
17/05:30am 19.6 - -2.7 22 9.3 - - - - - - - 0.0
17/05:00am 19.6 - -2.7 22 9.3 - - - - - - - 0.0
17/04:30am 20.1 - -2.3 22 9.5 - - - - - - - 0.0
17/04:00am 21.1 - -2.7 20 10.1 - - - - - - - 0.0
17/03:30am 21.6 - -2.3 20 10.3 - - - - - - - 0.0
17/03:00am 22.1 - -2.6 19 10.6 - - - - - - - 0.0
17/02:30am 22.6 - -2.2 19 10.8 - - - - - - - 0.0
17/02:00am 22.9 - -1.9 19 10.9 - - - - - - - 0.0
17/01:30am 23.3 - -1.6 19 11.0 - - - - - - - 0.0
17/01:00am 23.7 - -1.3 19 11.2 - - - - - - - 0.0
17/12:30am 24.7 - -1.2 18 11.7 - - - - - - - 0.0
17/12:00am 25.4 - -1.4 17 12.1 - - - - - - - 0.0
 
Date/Time
EDT
Temp
°C
App
Temp
°C
Dew
Point
°C
Rel
Hum
%
Delta-T
°C
Wind Press
QNH
hPa
Press
MSL
hPa
Rain since
9am
mm
Dir  Spd
km/h
Gust
km/h
Spd
kts
Gust
kts
16/11:30pm 26.0 - -0.9 17 12.3 - - - - - - - 0.0
16/11:00pm 26.2 - -0.8 17 12.4 - - - - - - - 0.0
16/10:30pm 26.0 - -0.9 17 12.3 - - - - - - - 0.0
16/10:00pm 26.7 - -1.2 16 12.8 - - - - - - - 0.0
16/09:30pm 26.8 - -1.1 16 12.8 - - - - - - - 0.0
16/09:00pm 27.8 - -1.2 15 13.4 - - - - - - - 0.0
16/08:30pm 29.3 - -1.9 13 14.4 - - - - - - - 0.0
16/08:00pm 30.2 - -1.2 13 14.8 - - - - - - - 0.0
16/07:30pm 31.5 - -2.5 11 15.8 - - - - - - - 0.0
16/07:00pm 32.1 - -3.3 10 16.3 - - - - - - - 0.0
16/06:30pm 32.6 - -2.9 10 16.5 - - - - - - - 0.0
16/06:00pm 32.6 - -1.7 11 16.3 - - - - - - - 0.0
16/05:30pm 32.7 - -0.4 12 16.1 - - - - - - - 0.0
16/05:00pm 32.8 - -1.5 11 16.4 - - - - - - - 0.0
16/04:30pm 33.4 - -2.3 10 16.9 - - - - - - - 0.0
16/04:00pm 33.0 - -2.6 10 16.7 - - - - - - - 0.0
16/03:30pm 32.9 - -2.7 10 16.7 - - - - - - - 0.0
16/03:00pm 32.7 - -1.6 11 16.3 - - - - - - - 0.0
16/02:30pm 32.3 - -0.7 12 15.9 - - - - - - - 0.0
16/02:00pm 32.3 - 0.4 13 15.7 - - - - - - - 0.0
16/01:30pm 32.1 - 2.2 15 15.1 - - - - - - - 0.0
16/01:00pm 31.8 - 2.9 16 14.7 - - - - - - - 0.0
16/12:30pm 31.1 - 3.2 17 14.2 - - - - - - - 0.0
16/12:00pm 30.6 - 5.1 20 13.4 - - - - - - - 0.0
16/11:30am 29.5 - 4.2 20 13.0 - - - - - - - 0.0
16/11:00am 29.1 - 4.6 21 12.6 - - - - - - - 0.0
16/10:30am 28.5 - 4.7 22 12.3 - - - - - - - 0.0
16/10:00am 28.0 - 5.0 23 11.9 - - - - - - - 0.0
16/09:30am 26.9 - 4.6 24 11.4 - - - - - - - 0.0
16/09:00am 25.6 - 4.7 26 10.6 - - - - - - - 0.0
16/08:30am 24.7 - 4.5 27 10.1 - - - - - - - 0.0
16/08:00am 23.1 - 5.1 31 9.0 - - - - - - - 0.0
16/07:30am 22.3 - 5.7 34 8.4 - - - - - - - 0.0
16/07:00am 20.4 - 6.4 40 7.1 - - - - - - - 0.0
16/06:30am 18.8 - 6.6 45 6.1 - - - - - - - 0.0
16/06:00am 19.1 - 6.6 44 6.3 - - - - - - - 0.0
16/05:30am 20.2 - 5.8 39 7.2 - - - - - - - 0.0
16/05:00am 21.4 - 5.7 36 7.9 - - - - - - - 0.0
16/04:30am 22.1 - 5.5 34 8.3 - - - - - - - 0.0
16/04:00am 22.5 - 5.4 33 8.6 - - - - - - - 0.0
16/03:30am 22.9 - 5.8 33 8.7 - - - - - - - 0.0
16/03:00am 23.4 - 5.8 32 9.0 - - - - - - - 0.0
16/02:30am 24.0 - 6.3 32 9.1 - - - - - - - 0.0
16/02:00am 24.1 - 6.8 33 9.0 - - - - - - - 0.0
16/01:30am 24.4 - 7.1 33 9.1 - - - - - - - 0.0
16/01:00am 25.0 - 7.6 33 9.2 - - - - - - - 0.0
16/12:30am 25.8 - 7.4 31 9.8 - - - - - - - 0.0
16/12:00am 26.5 - 7.5 30 10.2 - - - - - - - 0.0
 
Date/Time
EDT
Temp
°C
App
Temp
°C
Dew
Point
°C
Rel
Hum
%
Delta-T
°C
Wind Press
QNH
hPa
Press
MSL
hPa
Rain since
9am
mm
Dir  Spd
km/h
Gust
km/h
Spd
kts
Gust
kts
15/11:30pm 27.2 - 7.1 28 10.7 - - - - - - - 0.0
15/11:00pm 28.1 - 7.4 27 11.1 - - - - - - - 0.0
15/10:30pm 28.5 - 7.7 27 11.3 - - - - - - - 0.0
15/10:00pm 29.0 - 8.1 27 11.4 - - - - - - - 0.0
15/09:30pm 29.5 - 8.5 27 11.6 - - - - - - - 0.0
15/09:00pm 30.1 - 8.5 26 12.0 - - - - - - - 0.0
15/08:30pm 30.5 - 8.3 25 12.3 - - - - - - - 0.0
15/08:00pm 31.2 - 8.2 24 12.8 - - - - - - - 0.0
15/07:30pm 32.0 - 7.6 22 13.5 - - - - - - - 0.0
15/07:00pm 32.7 - 6.8 20 14.2 - - - - - - - 0.0
15/06:30pm 32.8 - 7.6 21 14.0 - - - - - - - 0.0
15/06:00pm 32.9 - 8.4 22 13.7 - - - - - - - 0.0
15/05:30pm 33.7 - 9.0 22 14.0 - - - - - - - 0.0
15/05:00pm 33.7 - 9.7 23 13.8 - - - - - - - 0.0
15/04:30pm 33.4 - 10.7 25 13.2 - - - - - - - 0.0
15/04:00pm 33.3 - 10.6 25 13.2 - - - - - - - 0.0
15/03:30pm 32.8 - 10.8 26 12.8 - - - - - - - 0.0
15/03:00pm 32.3 - 10.9 27 12.5 - - - - - - - 0.0
15/02:30pm 33.4 - 10.7 25 13.2 - - - - - - - 0.0
15/02:00pm 32.9 - 10.3 25 13.1 - - - - - - - 0.0
15/01:30pm 33.1 - 10.4 25 13.2 - - - - - - - 0.0
15/01:00pm 31.8 - 11.0 28 12.1 - - - - - - - 0.0
15/12:30pm 32.0 - 10.7 27 12.3 - - - - - - - 0.0
15/12:00pm 31.4 - 11.7 29 11.6 - - - - - - - 0.0
15/11:30am 30.9 - 11.8 31 11.2 - - - - - - - 0.0
15/11:00am 30.3 - 11.8 32 10.8 - - - - - - - 0.0
15/10:30am 29.9 - 11.4 32 10.7 - - - - - - - 0.0
15/10:00am 29.4 - 11.9 34 10.2 - - - - - - - 0.0
15/09:30am 28.3 - 13.0 39 9.0 - - - - - - - 0.0
15/09:00am 26.7 - 14.5 47 7.3 - - - - - - - 0.2
15/08:30am 25.2 - 14.9 52 6.2 - - - - - - - 0.2
15/08:00am 23.8 - 15.0 57 5.3 - - - - - - - 0.2
15/07:30am 22.7 - 15.3 63 4.4 - - - - - - - 0.2
15/07:00am 21.8 - 15.4 67 3.8 - - - - - - - 0.2
15/06:30am 20.9 - 15.7 72 3.1 - - - - - - - 0.2
15/06:00am 20.3 - 14.9 71 3.2 - - - - - - - 0.2
15/05:30am 20.0 - 14.6 71 3.2 - - - - - - - 0.2
15/05:00am 19.6 - 14.0 70 3.2 - - - - - - - 0.2
15/04:30am 19.8 - 13.7 68 3.5 - - - - - - - 0.2
15/04:00am 20.4 - 13.8 66 3.8 - - - - - - - 0.2
15/03:30am 20.9 - 13.6 63 4.2 - - - - - - - 0.2
15/03:00am 21.6 - 13.5 60 4.7 - - - - - - - 0.2
15/02:30am 21.9 - 13.3 58 5.0 - - - - - - - 0.2
15/02:00am 22.2 - 13.0 56 5.3 - - - - - - - 0.2
15/01:30am 22.6 - 12.8 54 5.6 - - - - - - - 0.2
15/01:00am 23.5 - 12.8 51 6.2 - - - - - - - 0.2
15/12:30am 23.8 - 13.4 52 6.1 - - - - - - - 0.2
15/12:00am 23.7 - 13.3 52 6.1 - - - - - - - 0.2
 
Date/Time
EDT
Temp
°C
App
Temp
°C
Dew
Point
°C
Rel
Hum
%
Delta-T
°C
Wind Press
QNH
hPa
Press
MSL
hPa
Rain since
9am
mm
Dir  Spd
km/h
Gust
km/h
Spd
kts
Gust
kts
14/11:30pm 24.0 - 13.2 50 6.3 - - - - - - - 0.2
14/11:00pm 24.8 - 13.4 49 6.7 - - - - - - - 0.2
14/10:30pm 25.5 - 13.4 47 7.1 - - - - - - - 0.2
14/10:00pm 26.3 - 13.8 46 7.4 - - - - - - - 0.2
14/09:30pm 27.1 - 13.8 44 7.9 - - - - - - - 0.2
14/09:00pm 28.0 - 12.8 39 8.9 - - - - - - - 0.2
14/08:30pm 28.9 - 11.9 35 9.9 - - - - - - - 0.2
14/08:00pm 30.0 - 11.5 32 10.8 - - - - - - - 0.2
14/07:30pm 30.9 - 10.8 29 11.6 - - - - - - - 0.2
14/07:00pm 31.6 - 9.8 26 12.4 - - - - - - - 0.2
14/06:30pm 31.3 - 10.6 28 11.9 - - - - - - - 0.2
14/06:00pm 31.6 - 11.4 29 11.8 - - - - - - - 0.2
14/05:30pm 31.5 - 11.8 30 11.6 - - - - - - - 0.2
14/05:00pm 31.5 - 11.8 30 11.6 - - - - - - - 0.2
14/04:30pm 31.9 - 12.7 31 11.5 - - - - - - - 0.2
14/04:00pm 31.5 - 13.3 33 11.0 - - - - - - - 0.2
14/03:30pm 31.0 - 12.8 32 10.8 - - - - - - - 0.2
14/03:00pm 31.2 - 13.5 34 10.7 - - - - - - - 0.2
14/02:30pm 30.2 - 13.5 36 10.0 - - - - - - - 0.2

Other Formats:

Comma delimited format used in spreadsheet applications
http://www.bom.gov.au/fwo/IDN60801/IDN60801.95681.axf

JavaScript Object Notation format (JSON) in row-major order
http://www.bom.gov.au/fwo/IDN60801/IDN60801.95681.json